Time;durP1;ratioP1;P1;durP2;ratioP2;P2;SDS_P1;SDS_P2;PMS_P1;PMS_P2;Temp;Humidity;BMP_temperature;BMP_pressure;BME280_temperature;BME280_humidity;BME280_pressure;Samples;Min_cycle;Max_cycle;Signal;HPM_P1;HPM_P2
2022/09/18 00:00:32;;;;;;;0.40;0.40;;;;;;;12.08;72.90;101397.69;2089044;28;20052;-67
2022/09/18 00:01:37;;;;;;;0.40;0.40;;;;;;;12.08;73.28;101392.28;2089150;28;20053;-67
2022/09/18 00:02:39;;;;;;;0.40;0.40;;;;;;;12.10;73.27;101389.25;2090071;28;20547;-67
2022/09/18 00:03:43;;;;;;;0.40;0.40;;;;;;;12.10;73.14;101389.25;2094701;28;20111;-68
2022/09/18 00:04:45;;;;;;;0.40;0.40;;;;;;;12.08;73.29;101392.28;2095606;28;20072;-66
2022/09/18 00:05:49;;;;;;;0.40;0.40;;;;;;;12.10;73.31;101373.78;2095133;28;20099;-67
2022/09/18 00:06:51;;;;;;;0.40;0.40;;;;;;;12.11;72.77;101388.91;2093960;28;20048;-66
2022/09/18 00:07:57;;;;;;;0.40;0.40;;;;;;;12.11;71.98;101394.31;2089050;28;20052;-67
2022/09/18 00:09:01;;;;;;;0.30;0.30;;;;;;;12.11;71.90;101394.31;2089085;28;20049;-67
2022/09/18 00:10:05;;;;;;;0.40;0.40;;;;;;;12.12;72.20;101390.47;2096033;28;20048;-67
2022/09/18 00:11:09;;;;;;;0.50;0.50;;;;;;;12.11;72.04;101394.31;2096347;28;20045;-66
2022/09/18 00:12:13;;;;;;;0.50;0.50;;;;;;;12.10;72.09;101398.13;2091195;28;20051;-66
2022/09/18 00:13:15;;;;;;;0.40;0.40;;;;;;;12.10;72.44;101394.66;2088734;28;20204;-67
2022/09/18 00:14:21;;;;;;;0.47;0.47;;;;;;;12.10;72.65;101390.00;2089144;28;20057;-67
2022/09/18 00:15:24;;;;;;;0.40;0.40;;;;;;;12.11;72.67;101393.53;2089025;28;20692;-67
2022/09/18 00:16:28;;;;;;;0.40;0.40;;;;;;;12.11;72.81;101383.50;2088631;28;20049;-67
2022/09/18 00:17:32;;;;;;;0.40;0.40;;;;;;;12.13;72.97;101383.91;2089010;28;20048;-67
2022/09/18 00:18:36;;;;;;;0.50;0.50;;;;;;;12.12;73.55;101376.13;2089100;28;20060;-67
2022/09/18 00:19:39;;;;;;;0.40;0.40;;;;;;;12.14;73.35;101379.31;2096664;28;20069;-67
2022/09/18 00:20:41;;;;;;;0.40;0.40;;;;;;;12.16;73.10;101377.88;2089354;28;20127;-67
2022/09/18 00:21:46;;;;;;;0.43;0.43;;;;;;;12.16;74.01;101366.25;2087791;28;20061;-67
2022/09/18 00:22:48;;;;;;;0.40;0.40;;;;;;;12.20;73.41;101367.13;2088427;28;20131;-67
2022/09/18 00:23:54;;;;;;;0.40;0.40;;;;;;;12.19;73.86;101369.06;2089835;28;20044;-67
2022/09/18 00:24:56;;;;;;;0.40;0.40;;;;;;;12.21;73.81;101369.50;2088919;28;20117;-67
2022/09/18 00:26:00;;;;;;;0.40;0.40;;;;;;;12.23;73.96;101363.75;2088792;28;20056;-67
2022/09/18 00:27:03;;;;;;;0.40;0.40;;;;;;;12.23;73.54;101359.13;2089411;28;20114;-68
2022/09/18 00:28:05;;;;;;;0.40;0.40;;;;;;;12.26;73.89;101360.38;2088024;28;20067;-68
2022/09/18 00:29:08;;;;;;;0.40;0.40;;;;;;;12.25;73.75;101367.72;2089096;28;20459;-68
2022/09/18 00:30:11;;;;;;;0.50;0.50;;;;;;;12.27;74.03;101373.59;2088850;28;20048;-68
2022/09/18 00:31:17;;;;;;;0.40;0.40;;;;;;;12.26;73.73;101366.56;2092019;28;20049;-67
2022/09/18 00:32:22;;;;;;;0.43;0.43;;;;;;;12.26;73.51;101361.16;2093279;28;20048;-68
2022/09/18 00:33:27;;;;;;;0.40;0.40;;;;;;;12.25;73.63;101370.41;2089150;28;20056;-68
2022/09/18 00:34:31;;;;;;;0.40;0.40;;;;;;;12.25;73.46;101365.00;2089536;28;20106;-68
2022/09/18 00:35:33;;;;;;;0.40;0.40;;;;;;;12.25;73.58;101367.72;2088791;28;20091;-68
2022/09/18 00:36:38;;;;;;;0.40;0.40;;;;;;;12.27;73.63;101370.88;2089953;28;20451;-68
2022/09/18 00:37:40;;;;;;;0.40;0.40;;;;;;;12.26;73.51;101371.97;2088115;28;20504;-68
2022/09/18 00:38:43;;;;;;;0.40;0.40;;;;;;;12.28;73.79;101385.97;2088675;28;20048;-67
2022/09/18 00:39:45;;;;;;;0.40;0.40;;;;;;;12.28;73.89;101391.41;2088746;28;20053;-68
2022/09/18 00:40:49;;;;;;;0.40;0.40;;;;;;;12.29;73.93;101392.97;2082714;28;20055;-68
2022/09/18 00:41:51;;;;;;;0.40;0.40;;;;;;;12.29;74.19;101395.66;2096032;28;20048;-67
2022/09/18 00:42:54;;;;;;;0.40;0.40;;;;;;;12.27;74.64;101387.13;2089947;28;20057;-67
2022/09/18 00:44:29;;;;;;;0.40;0.40;;;;;;;12.21;75.44;101380.31;2089466;28;20060;-68
2022/09/18 00:45:32;;;;;;;0.50;0.50;;;;;;;12.22;75.29;101386.53;2088428;28;20041;-68
2022/09/18 00:46:36;;;;;;;0.50;0.50;;;;;;;12.23;75.32;101378.06;2089817;28;20045;-68
2022/09/18 00:47:43;;;;;;;0.50;0.50;;;;;;;12.26;75.72;101377.41;2088900;28;20056;-68
2022/09/18 00:48:53;;;;;;;0.50;0.50;;;;;;;12.24;75.75;101376.16;2095574;28;20084;-68
2022/09/18 00:49:59;;;;;;;;;;;;;;;12.06;76.69;101367.47;2089496;28;20057;-68
2022/09/18 00:51:02;;;;;;;0.50;0.50;;;;;;;12.15;76.05;101373.56;2088794;28;20487;-69
2022/09/18 00:52:06;;;;;;;0.40;0.40;;;;;;;12.16;76.61;101361.63;2088504;28;20412;-68
2022/09/18 00:53:08;;;;;;;0.40;0.40;;;;;;;12.19;76.33;101366.34;2092334;28;20052;-67
2022/09/18 00:54:22;;;;;;;0.40;0.40;;;;;;;12.18;76.42;101370.16;2090480;28;20052;-66
2022/09/18 00:55:29;;;;;;;0.40;0.40;;;;;;;12.19;76.62;101362.84;2094588;28;20052;-67
2022/09/18 00:56:33;;;;;;;0.40;0.40;;;;;;;12.19;76.58;101369.06;2087975;28;20201;-67
2022/09/18 00:57:40;;;;;;;0.40;0.40;;;;;;;12.22;76.56;101367.59;2093302;28;20052;-67
2022/09/18 00:58:44;;;;;;;0.50;0.50;;;;;;;12.19;76.90;101366.34;2090258;28;20057;-66
2022/09/18 00:59:50;;;;;;;0.45;0.45;;;;;;;12.20;76.82;101373.34;2091967;28;20049;-67
2022/09/18 01:00:54;;;;;;;0.50;0.50;;;;;;;12.20;76.86;101361.72;2092491;28;20060;-66
2022/09/18 01:01:58;;;;;;;0.40;0.40;;;;;;;12.22;76.86;101370.28;2095831;28;20096;-67
2022/09/18 01:03:02;;;;;;;0.40;0.40;;;;;;;12.22;76.71;101365.69;2088825;28;20060;-67
2022/09/18 01:04:10;;;;;;;0.40;0.40;;;;;;;12.23;76.76;101364.53;2092806;28;20474;-67
2022/09/18 01:05:15;;;;;;;0.40;0.40;;;;;;;12.24;76.62;101370.75;2091929;28;20056;-67
2022/09/18 01:06:29;;;;;;;0.47;0.47;;;;;;;12.23;76.51;101361.03;2095709;28;20072;-67
2022/09/18 01:07:47;;;;;;;0.40;0.40;;;;;;;12.25;76.40;101365.00;2093361;28;20624;-67
2022/09/18 01:08:59;;;;;;;0.50;0.50;;;;;;;12.25;76.31;101370.41;2094644;28;20564;-67
2022/09/18 01:10:11;;;;;;;0.40;0.40;;;;;;;12.26;75.99;101371.97;2094433;28;20044;-67
2022/09/18 01:11:29;;;;;;;0.47;0.47;;;;;;;12.25;76.54;101364.19;2088328;28;20555;-67
2022/09/18 01:12:40;;;;;;;0.40;0.40;;;;;;;12.30;76.27;101374.81;2094947;28;20048;-67
2022/09/18 01:13:51;;;;;;;0.40;0.40;;;;;;;12.30;76.03;101367.50;2085329;28;20131;-66
2022/09/18 01:15:05;;;;;;;0.40;0.40;;;;;;;12.30;76.12;101366.69;2095253;28;20044;-67
2022/09/18 01:16:13;;;;;;;0.45;0.45;;;;;;;12.31;76.06;101362.84;2088435;28;20087;-67
2022/09/18 01:17:25;;;;;;;0.50;0.50;;;;;;;12.31;75.99;101366.34;2088323;28;20388;-66
2022/09/18 01:18:37;;;;;;;0.40;0.40;;;;;;;12.31;75.79;101354.72;2091152;28;20059;-67
2022/09/18 01:20:00;;;;;;;0.40;0.40;;;;;;;12.27;75.82;101356.53;2091794;28;20594;-66
2022/09/18 01:21:08;;;;;;;0.40;0.40;;;;;;;12.27;75.93;101362.75;2084205;28;20106;-67
2022/09/18 01:22:31;;;;;;;0.40;0.40;;;;;;;12.24;76.06;101357.97;2075178;28;20061;-67
2022/09/18 01:24:09;;;;;;;0.50;0.50;;;;;;;12.18;76.39;101353.94;2091477;28;20048;-67
2022/09/18 01:25:21;;;;;;;0.50;0.50;;;;;;;12.21;76.56;101355.97;2093665;28;20048;-67
2022/09/18 01:26:45;;;;;;;0.50;0.50;;;;;;;12.21;76.18;101369.50;2091622;28;20599;-67
2022/09/18 01:28:03;;;;;;;0.50;0.50;;;;;;;12.21;75.98;101369.50;2093084;28;20041;-67
2022/09/18 01:29:10;;;;;;;0.40;0.40;;;;;;;12.24;75.94;101365.34;2082391;28;20049;-67
2022/09/18 01:30:14;;;;;;;0.50;0.50;;;;;;;12.25;75.33;101367.72;2089863;28;20056;-67
2022/09/18 01:31:20;;;;;;;0.40;0.40;;;;;;;12.26;75.17;101371.97;2092783;28;20508;-67
2022/09/18 01:32:29;;;;;;;0.40;0.40;;;;;;;12.27;74.85;101373.59;2088479;28;20056;-67
2022/09/18 01:33:41;;;;;;;0.40;0.40;;;;;;;12.26;74.59;101376.63;2085853;28;20041;-67
2022/09/18 01:34:49;;;;;;;0.40;0.40;;;;;;;12.27;74.56;101373.59;2085888;28;20365;-68
2022/09/18 01:35:57;;;;;;;0.40;0.40;;;;;;;12.27;74.99;101368.16;2088319;28;20144;-68
2022/09/18 01:37:06;;;;;;;0.40;0.40;;;;;;;12.29;74.52;101367.81;2088264;28;20478;-68
2022/09/18 01:38:14;;;;;;;0.38;0.38;;;;;;;12.28;74.40;101363.53;2093077;28;20052;-66
2022/09/18 01:39:23;;;;;;;0.40;0.40;;;;;;;12.28;74.39;101358.91;2094684;28;20053;-67
2022/09/18 01:40:30;;;;;;;0.40;0.40;;;;;;;12.30;74.39;101369.41;2087968;28;20622;-67
2022/09/18 01:41:37;;;;;;;0.40;0.40;;;;;;;12.29;74.08;101365.88;2088036;28;20043;-67
2022/09/18 01:42:47;;;;;;;0.40;0.40;;;;;;;12.30;73.91;101363.97;2088853;28;20048;-67
2022/09/18 01:43:58;;;;;;;0.40;0.40;;;;;;;12.30;73.62;101372.09;2087801;28;20049;-66
2022/09/18 01:45:07;;;;;;;0.40;0.40;;;;;;;12.31;73.53;101368.25;2080947;28;20050;-67
2022/09/18 01:46:15;;;;;;;0.40;0.40;;;;;;;12.28;73.28;101361.63;2078570;28;20144;-67
2022/09/18 01:47:25;;;;;;;0.40;0.40;;;;;;;12.28;73.79;101364.31;2090900;28;20045;-68
2022/09/18 01:48:31;;;;;;;0.40;0.40;;;;;;;12.27;73.83;101362.75;2088676;28;20154;-67
2022/09/18 01:49:40;;;;;;;0.40;0.40;;;;;;;12.27;73.71;101354.63;2089833;28;20048;-68
2022/09/18 01:50:52;;;;;;;0.40;0.40;;;;;;;12.25;73.76;101359.59;2091848;28;20049;-67
2022/09/18 01:52:00;;;;;;;0.40;0.40;;;;;;;12.27;74.19;101357.34;2088306;28;20057;-67
2022/09/18 01:53:10;;;;;;;0.40;0.40;;;;;;;12.27;73.79;101351.91;2094234;28;20056;-67
2022/09/18 01:54:14;;;;;;;;;;;;;;;12.10;74.62;101346.72;2091948;28;20052;-67
2022/09/18 01:55:22;;;;;;;0.40;0.40;;;;;;;12.19;74.67;101350.13;2083338;28;19929;-67
2022/09/18 01:56:30;;;;;;;0.40;0.40;;;;;;;12.23;74.31;101350.19;2079722;28;20056;-67
2022/09/18 01:57:48;;;;;;;0.40;0.40;;;;;;;12.24;74.01;101355.28;2080640;28;20523;-67
2022/09/18 01:58:55;;;;;;;0.40;0.40;;;;;;;12.24;74.22;101355.28;2090474;28;20044;-67
2022/09/18 02:00:10;;;;;;;0.40;0.40;;;;;;;12.24;73.95;101347.16;2086289;28;20524;-67
2022/09/18 02:01:22;;;;;;;0.40;0.40;;;;;;;12.24;73.82;101352.56;2081111;28;20048;-68
2022/09/18 02:02:32;;;;;;;0.32;0.32;;;;;;;12.25;73.75;101348.75;2095579;28;20067;-67
2022/09/18 02:03:40;;;;;;;0.40;0.40;;;;;;;12.25;73.81;101351.47;2082340;28;20107;-68
2022/09/18 02:04:47;;;;;;;0.40;0.40;;;;;;;12.27;73.39;101351.91;2077015;28;20562;-66
2022/09/18 02:05:55;;;;;;;0.40;0.40;;;;;;;12.28;73.38;101352.69;2087820;28;20052;-68
2022/09/18 02:07:04;;;;;;;0.40;0.40;;;;;;;12.29;73.21;101351.59;2084761;28;20509;-67
2022/09/18 02:08:14;;;;;;;0.40;0.40;;;;;;;12.28;73.20;101353.50;2080263;28;20061;-66
2022/09/18 02:09:18;;;;;;;0.40;0.40;;;;;;;12.27;73.37;101346.50;2080426;28;20053;-68
2022/09/18 02:10:23;;;;;;;0.40;0.40;;;;;;;12.31;73.26;101354.72;2088081;28;20057;-67
2022/09/18 02:11:26;;;;;;;0.32;0.32;;;;;;;12.31;73.11;101352.00;2079124;28;20096;-67
2022/09/18 02:12:33;;;;;;;0.40;0.40;;;;;;;12.33;73.15;101349.75;2076736;28;20056;-67
2022/09/18 02:13:42;;;;;;;0.50;0.50;;;;;;;12.33;72.98;101355.19;2080350;28;20076;-68
2022/09/18 02:14:50;;;;;;;0.40;0.40;;;;;;;12.31;72.42;101352.81;2086692;28;20056;-69
2022/09/18 02:16:28;;;;;;;0.40;0.40;;;;;;;12.29;72.13;101349.66;2088344;28;20033;-68
2022/09/18 02:17:34;;;;;;;0.40;0.40;;;;;;;12.30;71.66;101362.06;2081148;28;20059;-67
2022/09/18 02:18:45;;;;;;;0.40;0.40;;;;;;;12.31;71.12;101363.63;2087672;28;20065;-67
2022/09/18 02:19:51;;;;;;;0.40;0.40;;;;;;;12.30;71.12;101364.78;2089884;28;20045;-66
2022/09/18 02:20:56;;;;;;;0.40;0.40;;;;;;;12.33;70.96;101371.41;2086257;28;20045;-68
2022/09/18 02:22:02;;;;;;;0.40;0.40;;;;;;;12.34;70.78;101376.50;2093228;28;20056;-68
2022/09/18 02:23:08;;;;;;;0.40;0.40;;;;;;;12.34;70.33;101373.00;2088042;28;20048;-68
2022/09/18 02:24:14;;;;;;;0.40;0.40;;;;;;;12.34;71.40;101368.38;2087808;28;20245;-67
2022/09/18 02:25:20;;;;;;;0.40;0.40;;;;;;;12.32;71.16;101384.16;2088483;28;20102;-68
2022/09/18 02:26:23;;;;;;;0.40;0.40;;;;;;;12.31;71.49;101384.50;2090331;28;20052;-68
2022/09/18 02:27:29;;;;;;;0.30;0.30;;;;;;;12.30;72.12;101393.75;2092117;28;20044;-67
2022/09/18 02:28:34;;;;;;;0.30;0.30;;;;;;;12.30;72.02;101388.34;2080200;28;20048;-68
2022/09/18 02:29:37;;;;;;;0.30;0.30;;;;;;;12.26;73.28;101384.75;2090274;28;20045;-68
2022/09/18 02:30:44;;;;;;;0.40;0.40;;;;;;;12.23;74.65;101377.28;2087612;28;20180;-68
2022/09/18 02:31:51;;;;;;;0.30;0.30;;;;;;;12.18;74.41;101375.59;2089764;28;20087;-67
2022/09/18 02:32:55;;;;;;;0.40;0.40;;;;;;;12.14;74.93;101363.88;2087485;28;20489;-67
2022/09/18 02:33:58;;;;;;;0.40;0.40;;;;;;;12.10;75.44;101360.25;2087118;28;20053;-67
2022/09/18 02:35:01;;;;;;;0.40;0.40;;;;;;;12.05;75.94;101350.44;2090640;28;20402;-67
2022/09/18 02:36:31;;;;;;;0.40;0.40;;;;;;;11.95;76.77;101350.91;2087276;28;20671;-67
2022/09/18 02:37:43;;;;;;;0.50;0.50;;;;;;;11.90;77.17;101334.06;2087954;28;20052;-67
2022/09/18 02:38:54;;;;;;;0.43;0.43;;;;;;;11.87;77.38;101324.72;2088076;28;20938;-67
2022/09/18 02:40:10;;;;;;;0.40;0.40;;;;;;;11.83;77.65;101331.13;2088961;28;20727;-67
2022/09/18 02:41:26;;;;;;;0.40;0.40;;;;;;;11.75;78.26;101324.69;2078254;28;20149;-67
2022/09/18 02:42:39;;;;;;;0.40;0.40;;;;;;;11.73;78.43;101321.53;2081026;28;20347;-67
2022/09/18 02:43:53;;;;;;;0.40;0.40;;;;;;;11.71;79.07;101312.19;2087958;28;20136;-66
2022/09/18 02:45:06;;;;;;;0.50;0.50;;;;;;;11.70;78.60;101314.09;2082852;28;20057;-67
2022/09/18 02:46:22;;;;;;;0.40;0.40;;;;;;;11.67;79.28;101319.41;2081577;28;20119;-67
2022/09/18 02:47:39;;;;;;;0.40;0.40;;;;;;;11.66;79.35;101323.22;2087578;28;20449;-67
2022/09/18 02:48:51;;;;;;;0.47;0.47;;;;;;;11.65;79.46;101324.34;2087100;28;20405;-66
2022/09/18 02:50:04;;;;;;;0.40;0.40;;;;;;;11.64;79.16;101322.75;2081168;28;20053;-67
2022/09/18 02:51:14;;;;;;;0.40;0.40;;;;;;;11.63;79.48;101323.88;2081682;28;20589;-67
2022/09/18 02:52:25;;;;;;;0.40;0.40;;;;;;;11.61;78.98;101329.59;2092962;28;20052;-67
2022/09/18 02:53:39;;;;;;;0.40;0.40;;;;;;;11.62;79.34;101325.00;2089532;28;20052;-67
2022/09/18 02:54:49;;;;;;;0.40;0.40;;;;;;;11.61;79.48;101320.69;2084095;28;20045;-67
2022/09/18 02:55:54;;;;;;;;;;;;;;;11.47;80.11;101317.50;2081152;28;20084;-66
2022/09/18 02:57:02;;;;;;;0.40;0.40;;;;;;;11.55;79.53;101330.16;2082044;28;19928;-67
2022/09/18 02:58:11;;;;;;;0.40;0.40;;;;;;;11.59;79.58;101328.38;2088053;28;20092;-67
2022/09/18 02:59:19;;;;;;;0.47;0.47;;;;;;;11.59;78.88;101329.16;2080377;28;20054;-67
2022/09/18 03:00:30;;;;;;;0.40;0.40;;;;;;;11.59;78.85;101321.03;2088431;28;20467;-67
2022/09/18 03:01:41;;;;;;;0.40;0.40;;;;;;;11.59;78.97;101318.31;2076715;28;20045;-68
2022/09/18 03:02:44;;;;;;;0.40;0.40;;;;;;;11.57;78.97;101314.38;2082720;28;20049;-67
2022/09/18 03:03:50;;;;;;;0.40;0.40;;;;;;;11.58;78.82;101324.06;2094308;28;20080;-66
2022/09/18 03:04:58;;;;;;;0.40;0.40;;;;;;;11.57;79.04;101322.50;2091031;28;20064;-68
2022/09/18 03:06:07;;;;;;;0.40;0.40;;;;;;;11.58;78.87;101321.38;2093918;28;20056;-68
2022/09/18 03:07:14;;;;;;;0.40;0.40;;;;;;;11.58;78.72;101314.06;2088219;28;20049;-67
2022/09/18 03:08:18;;;;;;;0.38;0.38;;;;;;;11.59;78.96;101317.56;2087451;28;20057;-66
2022/09/18 03:09:22;;;;;;;0.40;0.40;;;;;;;11.59;78.27;101320.25;2086265;28;20044;-68
2022/09/18 03:10:25;;;;;;;0.40;0.40;;;;;;;11.60;78.28;101321.81;2086283;28;20428;-67
2022/09/18 03:11:28;;;;;;;0.40;0.40;;;;;;;11.61;78.22;101323.41;2086958;28;20103;-67
2022/09/18 03:12:31;;;;;;;0.40;0.40;;;;;;;11.60;78.31;101321.81;2090549;28;20049;-67
2022/09/18 03:13:35;;;;;;;0.40;0.40;;;;;;;11.62;78.31;101316.88;2087567;28;20187;-67
2022/09/18 03:14:40;;;;;;;0.40;0.40;;;;;;;11.62;78.52;101317.66;2087623;28;20123;-68
2022/09/18 03:15:43;;;;;;;0.30;0.30;;;;;;;11.63;78.31;101321.97;2088125;28;20048;-68
2022/09/18 03:16:47;;;;;;;0.40;0.40;;;;;;;11.66;78.12;101312.41;2088283;28;20654;-67
2022/09/18 03:17:50;;;;;;;0.30;0.30;;;;;;;11.68;78.34;101331.78;2087268;28;20057;-68
2022/09/18 03:18:52;;;;;;;0.40;0.40;;;;;;;11.67;78.71;101322.88;2094591;28;20044;-67
2022/09/18 03:19:56;;;;;;;0.40;0.40;;;;;;;11.69;78.44;101323.34;2096360;28;20036;-68
2022/09/18 03:20:58;;;;;;;0.35;0.35;;;;;;;11.74;78.60;101325.03;2095654;28;20182;-67
2022/09/18 03:22:01;;;;;;;0.40;0.40;;;;;;;11.74;78.45;101314.22;2094442;28;20094;-68
2022/09/18 03:23:08;;;;;;;0.40;0.40;;;;;;;11.76;78.24;101320.09;2087181;28;20582;-68
2022/09/18 03:24:12;;;;;;;0.40;0.40;;;;;;;11.75;78.53;101319.28;2088287;28;20053;-67
2022/09/18 03:25:17;;;;;;;0.30;0.30;;;;;;;11.74;78.44;101315.00;2084625;28;20051;-68
2022/09/18 03:26:21;;;;;;;0.40;0.40;;;;;;;11.73;78.75;101309.94;2084718;28;20052;-68
2022/09/18 03:27:24;;;;;;;0.35;0.35;;;;;;;11.73;78.92;101321.53;2087587;28;20053;-67
2022/09/18 03:28:31;;;;;;;0.40;0.40;;;;;;;11.74;78.72;101316.91;2091818;28;20056;-68
2022/09/18 03:29:33;;;;;;;0.40;0.40;;;;;;;11.74;80.13;101311.50;2089134;28;20090;-68
2022/09/18 03:30:37;;;;;;;0.40;0.40;;;;;;;11.75;79.84;101313.06;2089409;28;20500;-67
2022/09/18 03:31:39;;;;;;;0.30;0.30;;;;;;;11.77;79.76;101313.53;2093859;28;20052;-67
2022/09/18 03:32:44;;;;;;;0.40;0.40;;;;;;;11.81;79.64;101317.16;2088516;28;20509;-67
2022/09/18 03:33:47;;;;;;;0.40;0.40;;;;;;;11.81;79.49;101312.53;2078829;28;20053;-67
2022/09/18 03:34:51;;;;;;;0.40;0.40;;;;;;;11.84;79.10;101316.50;2075549;28;20060;-68
2022/09/18 03:35:54;;;;;;;0.40;0.40;;;;;;;11.86;78.92;101314.25;2089596;28;20051;-68
2022/09/18 03:36:58;;;;;;;0.40;0.40;;;;;;;11.86;78.83;101319.66;2094395;28;20151;-68
2022/09/18 03:38:00;;;;;;;0.40;0.40;;;;;;;11.86;78.43;101309.59;2087575;28;22134;-67
2022/09/18 03:39:06;;;;;;;0.40;0.40;;;;;;;11.86;78.85;101308.84;2088834;28;20078;-68
2022/09/18 03:40:08;;;;;;;0.32;0.32;;;;;;;11.85;78.36;101307.22;2093851;28;20084;-67
2022/09/18 03:41:12;;;;;;;0.30;0.30;;;;;;;11.85;78.71;101304.53;2094599;28;20665;-68
2022/09/18 03:42:14;;;;;;;0.35;0.35;;;;;;;11.86;78.79;101311.53;2092316;28;20128;-68
2022/09/18 03:43:17;;;;;;;0.40;0.40;;;;;;;11.86;78.45;101306.13;2092613;28;20045;-68
2022/09/18 03:44:20;;;;;;;0.30;0.30;;;;;;;11.86;78.52;101303.44;2087874;28;20045;-67
2022/09/18 03:45:23;;;;;;;0.40;0.40;;;;;;;11.86;79.15;101298.00;2096378;28;20463;-68
2022/09/18 03:46:26;;;;;;;0.40;0.40;;;;;;;11.85;78.43;101297.22;2081344;28;20068;-68
2022/09/18 03:47:36;;;;;;;0.40;0.40;;;;;;;11.84;78.73;101297.56;2078086;28;20127;-68
2022/09/18 03:48:39;;;;;;;0.40;0.40;;;;;;;11.83;78.42;101295.97;2088628;28;20056;-67
2022/09/18 03:49:44;;;;;;;0.40;0.40;;;;;;;11.81;78.52;101296.28;2093048;28;20053;-68
2022/09/18 03:50:47;;;;;;;0.40;0.40;;;;;;;11.80;78.70;101299.34;2089301;28;20156;-68
2022/09/18 03:51:51;;;;;;;0.40;0.40;;;;;;;11.78;78.70;101296.19;2080968;28;20505;-68
2022/09/18 03:52:53;;;;;;;0.40;0.40;;;;;;;11.77;79.07;101300.00;2081940;28;20050;-67
2022/09/18 03:54:25;;;;;;;0.40;0.40;;;;;;;11.75;78.75;101288.72;2088980;28;20056;-68
2022/09/18 03:55:48;;;;;;;0.40;0.40;;;;;;;11.75;78.87;101296.84;2081949;28;20050;-67
2022/09/18 03:57:10;;;;;;;0.40;0.40;;;;;;;11.74;79.14;101284.47;2092570;28;20394;-67
2022/09/18 03:58:39;;;;;;;0.40;0.40;;;;;;;11.74;79.05;101284.47;2082870;28;20068;-68
2022/09/18 03:59:53;;;;;;;0.40;0.40;;;;;;;11.75;79.16;101283.31;2088499;28;20048;-67
2022/09/18 04:01:17;;;;;;;0.40;0.40;;;;;;;11.75;79.12;101280.63;2089561;28;20056;-66
2022/09/18 04:02:39;;;;;;;0.40;0.40;;;;;;;11.74;79.14;101285.25;2088761;28;20051;-67
2022/09/18 04:04:10;;;;;;;0.40;0.40;;;;;;;11.75;79.33;101280.63;2087899;28;20056;-67
2022/09/18 04:05:32;;;;;;;0.40;0.40;;;;;;;11.76;79.24;101288.44;2087953;28;20767;-67
2022/09/18 04:06:54;;;;;;;0.40;0.40;;;;;;;11.78;79.08;101282.69;2096289;28;20106;-67
2022/09/18 04:08:15;;;;;;;0.40;0.40;;;;;;;11.80;79.40;101289.31;2088950;28;20056;-67
2022/09/18 04:09:38;;;;;;;0.40;0.40;;;;;;;11.83;79.24;101287.84;2084717;28;20041;-67
2022/09/18 04:10:40;;;;;;;0.40;0.40;;;;;;;11.87;78.91;101288.75;2090171;28;20056;-68
2022/09/18 04:11:44;;;;;;;0.40;0.40;;;;;;;11.88;79.63;101284.91;2087783;28;20048;-68
2022/09/18 04:12:46;;;;;;;0.40;0.40;;;;;;;11.91;79.34;101287.75;2079393;28;20099;-67
2022/09/18 04:13:58;;;;;;;0.40;0.40;;;;;;;11.93;79.36;101290.91;2081046;28;20557;-67
2022/09/18 04:15:01;;;;;;;0.40;0.40;;;;;;;11.96;79.32;101300.25;2085294;28;20757;-67
2022/09/18 04:16:06;;;;;;;0.40;0.40;;;;;;;11.98;79.81;101292.59;2088293;28;20862;-67
2022/09/18 04:17:10;;;;;;;0.40;0.40;;;;;;;11.99;79.71;101291.47;2093178;28;20171;-67
2022/09/18 04:18:13;;;;;;;0.40;0.40;;;;;;;12.00;79.45;101293.81;2095550;28;20060;-66
2022/09/18 04:19:16;;;;;;;0.40;0.40;;;;;;;12.01;79.31;101281.88;2089880;28;20390;-66
2022/09/18 04:20:19;;;;;;;0.40;0.40;;;;;;;12.03;79.23;101290.44;2080999;28;20072;-67
2022/09/18 04:21:21;;;;;;;0.40;0.40;;;;;;;12.03;79.66;101282.31;2088669;28;20507;-67
2022/09/18 04:22:26;;;;;;;0.47;0.47;;;;;;;12.05;79.34;101276.56;2081007;28;20080;-67
2022/09/18 04:23:29;;;;;;;0.40;0.40;;;;;;;12.07;79.37;101276.25;2079736;28;20065;-67
2022/09/18 04:24:34;;;;;;;0.40;0.40;;;;;;;12.08;79.24;101284.03;2090995;28;20112;-67
2022/09/18 04:25:37;;;;;;;0.40;0.40;;;;;;;12.07;79.27;101282.44;2092354;28;20051;-67
2022/09/18 04:26:41;;;;;;;0.40;0.40;;;;;;;12.07;79.33;101283.22;2086399;28;20488;-67
2022/09/18 04:27:44;;;;;;;0.40;0.40;;;;;;;12.09;79.26;101282.88;2072473;28;20137;-68
2022/09/18 04:28:48;;;;;;;0.40;0.40;;;;;;;12.07;79.08;101290.56;2080168;28;20394;-68
2022/09/18 04:29:53;;;;;;;0.40;0.40;;;;;;;12.05;78.81;101280.06;2084306;28;20041;-68
2022/09/18 04:30:58;;;;;;;0.47;0.47;;;;;;;12.06;78.92;101280.88;2080350;28;20133;-68
2022/09/18 04:32:01;;;;;;;0.40;0.40;;;;;;;12.07;78.79;101277.03;2081582;28;20460;-68
2022/09/18 04:33:06;;;;;;;0.40;0.40;;;;;;;12.07;78.97;101285.94;2085315;28;20048;-67
2022/09/18 04:34:09;;;;;;;0.50;0.50;;;;;;;12.08;78.83;101286.75;2088023;28;20060;-68
2022/09/18 04:35:14;;;;;;;0.40;0.40;;;;;;;12.09;79.23;101296.41;2081966;28;20056;-67
2022/09/18 04:36:18;;;;;;;0.40;0.40;;;;;;;12.08;78.88;101292.16;2084849;28;20055;-67
2022/09/18 04:37:21;;;;;;;0.40;0.40;;;;;;;12.08;79.04;101284.81;2095895;28;20063;-67
2022/09/18 04:38:27;;;;;;;0.40;0.40;;;;;;;12.07;79.03;101290.56;2083387;28;20127;-67
2022/09/18 04:39:34;;;;;;;0.40;0.40;;;;;;;12.08;79.25;101289.44;2081581;28;20133;-67
2022/09/18 04:40:37;;;;;;;0.45;0.45;;;;;;;12.04;79.62;101285.81;2088199;28;20053;-67
2022/09/18 04:41:44;;;;;;;0.40;0.40;;;;;;;12.05;79.73;101287.38;2091146;28;20045;-66
2022/09/18 04:42:48;;;;;;;0.40;0.40;;;;;;;12.04;79.90;101277.69;2092459;28;20040;-67
2022/09/18 04:43:51;;;;;;;0.40;0.40;;;;;;;12.02;79.59;101274.53;2088687;28;20060;-67
2022/09/18 04:44:54;;;;;;;0.40;0.40;;;;;;;12.02;80.00;101271.84;2088143;28;20048;-68
2022/09/18 04:45:57;;;;;;;0.40;0.40;;;;;;;12.01;79.84;101262.16;2072687;28;20054;-67
2022/09/18 04:46:59;;;;;;;0.40;0.40;;;;;;;12.01;80.14;101270.25;2081255;28;20053;-67
2022/09/18 04:48:03;;;;;;;0.40;0.40;;;;;;;12.00;80.73;101274.09;2089068;28;20500;-67
2022/09/18 04:49:05;;;;;;;0.40;0.40;;;;;;;11.96;80.82;101270.50;2088146;28;20044;-65
2022/09/18 04:50:09;;;;;;;0.40;0.40;;;;;;;11.97;80.62;101282.91;2093735;28;20051;-66
2022/09/18 04:51:33;;;;;;;0.40;0.40;;;;;;;11.92;81.15;101275.78;2088859;28;20056;-66
2022/09/18 04:52:36;;;;;;;0.40;0.40;;;;;;;11.94;81.17;101278.94;2089337;28;20493;-67
2022/09/18 04:53:39;;;;;;;0.50;0.50;;;;;;;11.95;81.18;101268.91;2092598;28;20045;-66
2022/09/18 04:54:44;;;;;;;0.40;0.40;;;;;;;11.95;81.16;101269.72;2087470;28;20107;-66
2022/09/18 04:55:48;;;;;;;0.40;0.40;;;;;;;11.97;81.31;101277.50;2090921;28;20106;-66
2022/09/18 04:56:52;;;;;;;0.40;0.40;;;;;;;11.97;80.54;101286.38;2087341;28;20135;-67
2022/09/18 04:57:55;;;;;;;0.40;0.40;;;;;;;11.96;81.30;101301.06;2087996;28;20615;-67
2022/09/18 04:58:59;;;;;;;0.40;0.40;;;;;;;11.95;81.35;101301.38;2088003;28;20095;-68
2022/09/18 05:00:05;;;;;;;0.40;0.40;;;;;;;11.95;81.60;101302.19;2091374;28;20080;-68
2022/09/18 05:01:09;;;;;;;0.30;0.30;;;;;;;11.93;81.58;101292.81;2089284;28;20302;-68
2022/09/18 05:02:12;;;;;;;0.32;0.32;;;;;;;11.90;81.91;101282.66;2087526;28;20479;-68
2022/09/18 05:03:16;;;;;;;0.40;0.40;;;;;;;11.87;81.76;101288.75;2083227;28;20186;-67
2022/09/18 05:04:19;;;;;;;0.40;0.40;;;;;;;11.84;81.74;101290.22;2088057;28;20089;-68
2022/09/18 05:05:30;;;;;;;0.40;0.40;;;;;;;11.77;82.15;101284.59;2083661;28;20628;-67
2022/09/18 05:06:34;;;;;;;0.40;0.40;;;;;;;11.76;81.58;101282.22;2080229;28;20073;-68
2022/09/18 05:07:37;;;;;;;0.40;0.40;;;;;;;11.73;81.58;101288.31;2079066;28;20136;-66
2022/09/18 05:08:40;;;;;;;0.40;0.40;;;;;;;11.72;81.67;101279.38;2065080;28;20322;-67
2022/09/18 05:09:43;;;;;;;0.40;0.40;;;;;;;11.73;81.54;101282.91;2087477;28;20087;-67
2022/09/18 05:10:46;;;;;;;0.40;0.40;;;;;;;11.73;81.49;101285.59;2093711;28;20059;-67
2022/09/18 05:11:50;;;;;;;0.40;0.40;;;;;;;11.72;81.76;101284.00;2087549;28;20123;-67
2022/09/18 05:12:52;;;;;;;0.43;0.43;;;;;;;11.71;81.54;101290.53;2081820;28;20045;-67
2022/09/18 05:13:57;;;;;;;0.40;0.40;;;;;;;11.71;81.53;101295.97;2084957;28;20533;-67